sensor_id;sensor_type;location;lat;lon;timestamp;pressure;altitude;pressure_sealevel;temperature;humidity
45369;BME280;51342;55.250;37.668;2022-12-07T00:04:05;100867.00;;;-10.52;62.68
45369;BME280;51342;55.250;37.668;2022-12-07T00:06:39;100872.47;;;-10.54;62.87
45369;BME280;51342;55.250;37.668;2022-12-07T00:09:14;100876.56;;;-10.55;62.75
45369;BME280;51342;55.250;37.668;2022-12-07T00:11:49;100877.88;;;-10.57;62.86
45369;BME280;51342;55.250;37.668;2022-12-07T00:14:21;100874.69;;;-10.56;62.94
45369;BME280;51342;55.250;37.668;2022-12-07T00:16:53;100868.56;;;-10.58;62.72
45369;BME280;51342;55.250;37.668;2022-12-07T00:19:24;100866.97;;;-10.57;62.84
45369;BME280;51342;55.250;37.668;2022-12-07T00:21:55;100868.56;;;-10.58;62.81
45369;BME280;51342;55.250;37.668;2022-12-07T00:24:27;100866.06;;;-10.58;62.74
45369;BME280;51342;55.250;37.668;2022-12-07T00:26:58;100854.22;;;-10.59;62.89
45369;BME280;51342;55.250;37.668;2022-12-07T00:29:30;100855.16;;;-10.58;62.83
45369;BME280;51342;55.250;37.668;2022-12-07T00:32:01;100866.97;;;-10.57;62.71
45369;BME280;51342;55.250;37.668;2022-12-07T00:34:32;100859.91;;;-10.60;62.76
45369;BME280;51342;55.250;37.668;2022-12-07T00:37:04;100861.25;;;-10.62;62.74
45369;BME280;51342;55.250;37.668;2022-12-07T00:39:35;100859.88;;;-10.65;62.72
45369;BME280;51342;55.250;37.668;2022-12-07T00:42:06;100867.84;;;-10.62;62.74
45369;BME280;51342;55.250;37.668;2022-12-07T00:44:38;100855.06;;;-10.70;62.90
45369;BME280;51342;55.250;37.668;2022-12-07T00:47:09;100862.38;;;-10.65;62.70
45369;BME280;51342;55.250;37.668;2022-12-07T00:49:41;100868.28;;;-10.65;62.67
45369;BME280;51342;55.250;37.668;2022-12-07T00:52:12;100862.38;;;-10.65;62.69
45369;BME280;51342;55.250;37.668;2022-12-07T00:54:44;100861.47;;;-10.66;62.57
45369;BME280;51342;55.250;37.668;2022-12-07T00:57:15;100857.56;;;-10.70;62.79
45369;BME280;51342;55.250;37.668;2022-12-07T00:59:48;100858.22;;;-10.71;62.52
45369;BME280;51342;55.250;37.668;2022-12-07T01:02:19;100861.47;;;-10.66;62.58
45369;BME280;51342;55.250;37.668;2022-12-07T01:04:50;100853.28;;;-10.65;62.60
45369;BME280;51342;55.250;37.668;2022-12-07T01:07:22;100867.59;;;-10.64;62.71
45369;BME280;51342;55.250;37.668;2022-12-07T01:09:53;100859.59;;;-10.67;62.42
45369;BME280;51342;55.250;37.668;2022-12-07T01:12:25;100858.28;;;-10.65;62.60
45369;BME280;51342;55.250;37.668;2022-12-07T01:14:56;100861.19;;;-10.68;62.76
45369;BME280;51342;55.250;37.668;2022-12-07T01:17:28;100850.50;;;-10.66;62.74
45369;BME280;51342;55.250;37.668;2022-12-07T01:20:00;100857.38;;;-10.65;62.46
45369;BME280;51342;55.250;37.668;2022-12-07T01:22:31;100853.28;;;-10.65;62.55
45369;BME280;51342;55.250;37.668;2022-12-07T01:25:08;100850.28;;;-10.68;62.49
45369;BME280;51342;55.250;37.668;2022-12-07T01:27:40;100844.59;;;-10.67;62.47
45369;BME280;51342;55.250;37.668;2022-12-07T01:30:13;100853.69;;;-10.68;62.56
45369;BME280;51342;55.250;37.668;2022-12-07T01:32:45;100850.06;;;-10.70;62.44
45369;BME280;51342;55.250;37.668;2022-12-07T01:35:16;100841.19;;;-10.68;62.48
45369;BME280;51342;55.250;37.668;2022-12-07T01:37:47;100846.88;;;-10.69;62.38
45369;BME280;51342;55.250;37.668;2022-12-07T01:40:19;100840.06;;;-10.70;62.52
45369;BME280;51342;55.250;37.668;2022-12-07T01:42:50;100842.09;;;-10.67;62.40
45369;BME280;51342;55.250;37.668;2022-12-07T01:45:38;100836.88;;;-10.69;62.45
45369;BME280;51342;55.250;37.668;2022-12-07T01:48:13;100831.63;;;-10.70;62.46
45369;BME280;51342;55.250;37.668;2022-12-07T01:50:48;100833.22;;;-10.71;62.49
45369;BME280;51342;55.250;37.668;2022-12-07T01:53:20;100829.81;;;-10.71;62.66
45369;BME280;51342;55.250;37.668;2022-12-07T01:55:53;100832.31;;;-10.71;62.49
45369;BME280;51342;55.250;37.668;2022-12-07T01:58:26;100837.06;;;-10.73;62.51
45369;BME280;51342;55.250;37.668;2022-12-07T02:00:57;100829.31;;;-10.74;62.61
45369;BME280;51342;55.250;37.668;2022-12-07T02:03:34;100836.41;;;-10.72;62.53
45369;BME280;51342;55.250;37.668;2022-12-07T02:06:08;100832.97;;;-10.72;62.53
45369;BME280;51342;55.250;37.668;2022-12-07T02:08:42;100833.66;;;-10.73;62.30
45369;BME280;51342;55.250;37.668;2022-12-07T02:11:13;100834.78;;;-10.77;62.53
45369;BME280;51342;55.250;37.668;2022-12-07T02:13:46;100829.31;;;-10.74;62.58
45369;BME280;51342;55.250;37.668;2022-12-07T02:16:36;100827.91;;;-10.78;62.52
45369;BME280;51342;55.250;37.668;2022-12-07T02:28:12;100825.13;;;-10.85;62.91
45369;BME280;51342;55.250;37.668;2022-12-07T02:30:49;100825.81;;;-10.86;62.88
45369;BME280;51342;55.250;37.668;2022-12-07T02:33:31;100818.03;;;-10.93;62.99
45369;BME280;51342;55.250;37.668;2022-12-07T02:36:15;100821.22;;;-10.94;62.58
45369;BME280;51342;55.250;37.668;2022-12-07T02:41:46;100828.03;;;-10.93;62.98
45369;BME280;51342;55.250;37.668;2022-12-07T02:44:22;100827.81;;;-10.94;62.98
45369;BME280;51342;55.250;37.668;2022-12-07T02:46:58;100821.84;;;-10.95;63.08
45369;BME280;51342;55.250;37.668;2022-12-07T02:49:31;100819.38;;;-10.95;62.87
45369;BME280;51342;55.250;37.668;2022-12-07T02:52:03;100827.13;;;-10.93;63.17
45369;BME280;51342;55.250;37.668;2022-12-07T02:54:34;100822.34;;;-10.92;63.06
45369;BME280;51342;55.250;37.668;2022-12-07T03:03:10;100820.94;;;-10.96;62.98
45369;BME280;51342;55.250;37.668;2022-12-07T03:08:39;100817.31;;;-10.98;63.11
45369;BME280;51342;55.250;37.668;2022-12-07T03:11:25;100806.81;;;-11.01;62.99
45369;BME280;51342;55.250;37.668;2022-12-07T03:14:22;100805.22;;;-11.06;63.03
45369;BME280;51342;55.250;37.668;2022-12-07T03:19:34;100809.75;;;-11.03;63.33
45369;BME280;51342;55.250;37.668;2022-12-07T03:22:12;100804.53;;;-11.05;63.22
45369;BME280;51342;55.250;37.668;2022-12-07T03:24:49;100808.34;;;-11.07;63.29
45369;BME280;51342;55.250;37.668;2022-12-07T03:27:26;100814.53;;;-11.05;63.43
45369;BME280;51342;55.250;37.668;2022-12-07T03:30:02;100814.25;;;-11.06;63.42
45369;BME280;51342;55.250;37.668;2022-12-07T03:32:43;100793.09;;;-11.14;63.54
45369;BME280;51342;55.250;37.668;2022-12-07T03:35:24;100800.63;;;-11.08;63.58
45369;BME280;51342;55.250;37.668;2022-12-07T03:40:54;100796.03;;;-11.16;63.46
45369;BME280;51342;55.250;37.668;2022-12-07T03:43:29;100807.22;;;-11.09;63.60
45369;BME280;51342;55.250;37.668;2022-12-07T03:46:21;100803.81;;;-11.09;63.83
45369;BME280;51342;55.250;37.668;2022-12-07T03:49:08;100806.72;;;-11.12;63.84
45369;BME280;51342;55.250;37.668;2022-12-07T03:54:23;100804.47;;;-11.10;63.97
45369;BME280;51342;55.250;37.668;2022-12-07T03:56:56;100802.66;;;-11.11;63.89
45369;BME280;51342;55.250;37.668;2022-12-07T03:59:29;100806.06;;;-11.11;64.04
45369;BME280;51342;55.250;37.668;2022-12-07T04:02:03;100807.38;;;-11.13;64.07
45369;BME280;51342;55.250;37.668;2022-12-07T04:04:35;100805.81;;;-11.12;63.95
45369;BME280;51342;55.250;37.668;2022-12-07T04:07:06;100802.16;;;-11.14;64.19
45369;BME280;51342;55.250;37.668;2022-12-07T04:09:38;100802.16;;;-11.14;64.11
45369;BME280;51342;55.250;37.668;2022-12-07T04:12:09;100801.94;;;-11.16;64.37
45369;BME280;51342;55.250;37.668;2022-12-07T04:14:41;100800.97;;;-11.22;64.26
45369;BME280;51342;55.250;37.668;2022-12-07T04:17:12;100808.69;;;-11.20;64.48
45369;BME280;51342;55.250;37.668;2022-12-07T04:19:43;100793.88;;;-11.25;64.53
45369;BME280;51342;55.250;37.668;2022-12-07T04:22:15;100798.19;;;-11.24;64.61
45369;BME280;51342;55.250;37.668;2022-12-07T04:24:46;100797.28;;;-11.24;64.77
45369;BME280;51342;55.250;37.668;2022-12-07T04:27:18;100790.25;;;-11.27;64.70
45369;BME280;51342;55.250;37.668;2022-12-07T04:29:49;100789.06;;;-11.29;64.81
45369;BME280;51342;55.250;37.668;2022-12-07T04:32:21;100798.16;;;-11.29;64.77
45369;BME280;51342;55.250;37.668;2022-12-07T04:34:52;100790.88;;;-11.33;64.86
45369;BME280;51342;55.250;37.668;2022-12-07T04:37:24;100794.28;;;-11.33;65.01
45369;BME280;51342;55.250;37.668;2022-12-07T04:39:55;100788.09;;;-11.35;64.95
45369;BME280;51342;55.250;37.668;2022-12-07T04:42:27;100785.59;;;-11.35;64.75
45369;BME280;51342;55.250;37.668;2022-12-07T04:44:58;100779.47;;;-11.37;65.05
45369;BME280;51342;55.250;37.668;2022-12-07T04:47:29;100781.28;;;-11.36;64.91
45369;BME280;51342;55.250;37.668;2022-12-07T04:50:01;100786.72;;;-11.38;65.08
45369;BME280;51342;55.250;37.668;2022-12-07T04:52:32;100790.31;;;-11.42;65.13
45369;BME280;51342;55.250;37.668;2022-12-07T04:55:04;100798.72;;;-11.41;65.26
45369;BME280;51342;55.250;37.668;2022-12-07T04:57:35;100793.97;;;-11.40;65.22
45369;BME280;51342;55.250;37.668;2022-12-07T05:00:07;100794.63;;;-11.41;65.37
45369;BME280;51342;55.250;37.668;2022-12-07T05:02:39;100791.66;;;-11.44;65.31
45369;BME280;51342;55.250;37.668;2022-12-07T05:05:10;100799.63;;;-11.41;65.38
45369;BME280;51342;55.250;37.668;2022-12-07T05:07:42;100797.78;;;-11.42;65.61
45369;BME280;51342;55.250;37.668;2022-12-07T05:10:13;100801.88;;;-11.42;65.63
45369;BME280;51342;55.250;37.668;2022-12-07T05:12:45;100801.88;;;-11.42;65.60
45369;BME280;51342;55.250;37.668;2022-12-07T05:15:16;100812.09;;;-11.41;65.71
45369;BME280;51342;55.250;37.668;2022-12-07T05:17:48;100798.91;;;-11.45;65.66
45369;BME280;51342;55.250;37.668;2022-12-07T05:20:19;100804.16;;;-11.44;65.86
45369;BME280;51342;55.250;37.668;2022-12-07T05:22:51;100801.41;;;-11.45;65.76
45369;BME280;51342;55.250;37.668;2022-12-07T05:25:22;100792.50;;;-11.49;65.87
45369;BME280;51342;55.250;37.668;2022-12-07T05:27:55;100792.00;;;-11.52;65.99
45369;BME280;51342;55.250;37.668;2022-12-07T05:30:26;100794.31;;;-11.48;65.99
45369;BME280;51342;55.250;37.668;2022-12-07T05:32:58;100793.88;;;-11.51;66.20
45369;BME280;51342;55.250;37.668;2022-12-07T05:35:29;100793.41;;;-11.49;66.16
45369;BME280;51342;55.250;37.668;2022-12-07T05:38:01;100795.25;;;-11.48;66.18
45369;BME280;51342;55.250;37.668;2022-12-07T05:40:32;100789.50;;;-11.52;66.11
45369;BME280;51342;55.250;37.668;2022-12-07T05:43:04;100793.19;;;-11.50;66.36
45369;BME280;51342;55.250;37.668;2022-12-07T05:45:35;100793.19;;;-11.50;66.52
45369;BME280;51342;55.250;37.668;2022-12-07T05:48:07;100790.00;;;-11.49;66.36
45369;BME280;51342;55.250;37.668;2022-12-07T05:50:38;100781.38;;;-11.51;66.45
45369;BME280;51342;55.250;37.668;2022-12-07T05:53:09;100780.69;;;-11.50;66.41
45369;BME280;51342;55.250;37.668;2022-12-07T05:55:41;100783.88;;;-11.51;66.68
45369;BME280;51342;55.250;37.668;2022-12-07T05:58:12;100781.38;;;-11.51;66.61
45369;BME280;51342;55.250;37.668;2022-12-07T06:01:02;100787.75;;;-11.48;66.68
45369;BME280;51342;55.250;37.668;2022-12-07T06:03:33;100789.84;;;-11.45;66.78
45369;BME280;51342;55.250;37.668;2022-12-07T06:06:05;100786.66;;;-11.44;66.87
45369;BME280;51342;55.250;37.668;2022-12-07T06:08:36;100792.56;;;-11.43;66.87
45369;BME280;51342;55.250;37.668;2022-12-07T06:11:08;100785.50;;;-11.46;66.86
45369;BME280;51342;55.250;37.668;2022-12-07T06:13:57;100786.66;;;-11.44;66.97
45369;BME280;51342;55.250;37.668;2022-12-07T06:16:29;100782.63;;;-11.38;66.81
45369;BME280;51342;55.250;37.668;2022-12-07T06:19:00;100786.53;;;-11.34;66.92
45369;BME280;51342;55.250;37.668;2022-12-07T06:21:32;100786.53;;;-11.34;67.21
45369;BME280;51342;55.250;37.668;2022-12-07T06:24:03;100785.94;;;-11.28;66.93
45369;BME280;51342;55.250;37.668;2022-12-07T06:26:35;100792.28;;;-11.24;67.14
45369;BME280;51342;55.250;37.668;2022-12-07T06:29:06;100784.56;;;-11.26;67.24
45369;BME280;51342;55.250;37.668;2022-12-07T06:31:38;100789.63;;;-11.20;67.28
45369;BME280;51342;55.250;37.668;2022-12-07T06:34:14;100784.44;;;-11.16;67.29
45369;BME280;51342;55.250;37.668;2022-12-07T06:36:46;100779.22;;;-11.12;67.37
45369;BME280;51342;55.250;37.668;2022-12-07T06:39:24;100778.81;;;-11.09;67.40
45369;BME280;51342;55.250;37.668;2022-12-07T06:41:56;100776.56;;;-11.08;67.48
45369;BME280;51342;55.250;37.668;2022-12-07T06:44:28;100778.63;;;-11.05;67.47
45369;BME280;51342;55.250;37.668;2022-12-07T06:46:59;100773.25;;;-10.97;67.49
45369;BME280;51342;55.250;37.668;2022-12-07T06:49:31;100776.69;;;-10.91;67.58
45369;BME280;51342;55.250;37.668;2022-12-07T06:52:02;100773.28;;;-10.91;67.60
45369;BME280;51342;55.250;37.668;2022-12-07T06:54:35;100786.97;;;-10.84;67.61
45369;BME280;51342;55.250;37.668;2022-12-07T06:57:07;100781.56;;;-10.81;67.61
45369;BME280;51342;55.250;37.668;2022-12-07T06:59:38;100771.56;;;-10.81;67.66
45369;BME280;51342;55.250;37.668;2022-12-07T07:02:09;100777.28;;;-10.77;67.46
45369;BME280;51342;55.250;37.668;2022-12-07T07:04:41;100780.47;;;-10.72;67.59
45369;BME280;51342;55.250;37.668;2022-12-07T07:07:12;100779.13;;;-10.70;67.71
45369;BME280;51342;55.250;37.668;2022-12-07T07:09:44;100772.34;;;-10.65;67.65
45369;BME280;51342;55.250;37.668;2022-12-07T07:12:15;100779.44;;;-10.57;67.56
45369;BME280;51342;55.250;37.668;2022-12-07T07:14:46;100777.44;;;-10.54;67.64
45369;BME280;51342;55.250;37.668;2022-12-07T07:17:18;100767.22;;;-10.50;67.72
45369;BME280;51342;55.250;37.668;2022-12-07T07:19:49;100772.47;;;-10.49;67.43
45369;BME280;51342;55.250;37.668;2022-12-07T07:22:20;100786.84;;;-10.42;67.37
45369;BME280;51342;55.250;37.668;2022-12-07T07:24:52;100767.75;;;-10.36;67.47
45369;BME280;51342;55.250;37.668;2022-12-07T07:27:23;100766.63;;;-10.32;67.42
45369;BME280;51342;55.250;37.668;2022-12-07T07:29:54;100766.44;;;-10.28;67.40
45369;BME280;51342;55.250;37.668;2022-12-07T07:32:26;100774.16;;;-10.21;67.35
45369;BME280;51342;55.250;37.668;2022-12-07T07:34:57;100769.66;;;-10.18;67.15
45369;BME280;51342;55.250;37.668;2022-12-07T07:37:29;100762.81;;;-10.19;67.10
45369;BME280;51342;55.250;37.668;2022-12-07T07:40:00;100775.38;;;-10.08;67.07
45369;BME280;51342;55.250;37.668;2022-12-07T07:42:31;100769.72;;;-10.01;67.06
45369;BME280;51342;55.250;37.668;2022-12-07T07:45:03;100772.69;;;-9.98;67.08
45369;BME280;51342;55.250;37.668;2022-12-07T07:47:35;100769.28;;;-9.93;66.94
45369;BME280;51342;55.250;37.668;2022-12-07T07:50:07;100757.69;;;-9.87;66.67
45369;BME280;51342;55.250;37.668;2022-12-07T07:52:39;100770.94;;;-9.77;66.64
45369;BME280;51342;55.250;37.668;2022-12-07T07:55:11;100764.13;;;-9.72;66.29
45369;BME280;51342;55.250;37.668;2022-12-07T07:57:43;100763.94;;;-9.68;66.52
45369;BME280;51342;55.250;37.668;2022-12-07T08:00:15;100768.75;;;-9.64;66.29
45369;BME280;51342;55.250;37.668;2022-12-07T08:02:46;100761.44;;;-9.63;66.37
45369;BME280;51342;55.250;37.668;2022-12-07T08:05:18;100765.09;;;-9.55;66.19
45369;BME280;51342;55.250;37.668;2022-12-07T08:07:49;100759.19;;;-9.50;66.04
45369;BME280;51342;55.250;37.668;2022-12-07T08:10:20;100748.25;;;-9.50;65.99
45369;BME280;51342;55.250;37.668;2022-12-07T08:12:52;100756.72;;;-9.39;65.84
45369;BME280;51342;55.250;37.668;2022-12-07T08:15:46;100751.72;;;-9.33;65.79
45369;BME280;51342;55.250;37.668;2022-12-07T08:18:18;100746.22;;;-9.30;65.62
45369;BME280;51342;55.250;37.668;2022-12-07T08:20:49;100740.56;;;-9.24;65.52
45369;BME280;51342;55.250;37.668;2022-12-07T08:23:21;100743.31;;;-9.17;65.46
45369;BME280;51342;55.250;37.668;2022-12-07T08:25:52;100739.69;;;-9.13;65.17
45369;BME280;51342;55.250;37.668;2022-12-07T08:28:24;100738.72;;;-9.08;64.93
45369;BME280;51342;55.250;37.668;2022-12-07T08:31:00;100729.63;;;-9.08;65.10
45369;BME280;51342;55.250;37.668;2022-12-07T08:33:32;100728.28;;;-9.00;64.92
45369;BME280;51342;55.250;37.668;2022-12-07T08:36:07;100728.28;;;-8.94;64.77
45369;BME280;51342;55.250;37.668;2022-12-07T08:38:40;100725.53;;;-8.90;64.77
45369;BME280;51342;55.250;37.668;2022-12-07T08:41:12;100721.44;;;-8.84;64.62
45369;BME280;51342;55.250;37.668;2022-12-07T08:43:43;100698.19;;;-8.94;64.55
45369;BME280;51342;55.250;37.668;2022-12-07T08:46:24;100719.13;;;-8.77;64.32
45369;BME280;51342;55.250;37.668;2022-12-07T08:49:02;100712.53;;;-8.76;64.25
45369;BME280;51342;55.250;37.668;2022-12-07T08:51:34;100715.25;;;-8.75;64.04
45369;BME280;51342;55.250;37.668;2022-12-07T08:54:09;100709.09;;;-8.71;64.09
45369;BME280;51342;55.250;37.668;2022-12-07T08:56:42;100704.06;;;-8.66;63.84
45369;BME280;51342;55.250;37.668;2022-12-07T08:59:15;100709.06;;;-8.60;63.89
45369;BME280;51342;55.250;37.668;2022-12-07T09:01:48;100708.59;;;-8.58;63.79
45369;BME280;51342;55.250;37.668;2022-12-07T09:04:19;100704.72;;;-8.56;63.72
45369;BME280;51342;55.250;37.668;2022-12-07T09:06:51;100697.22;;;-8.56;63.81
45369;BME280;51342;55.250;37.668;2022-12-07T09:09:23;100700.38;;;-8.51;63.42
45369;BME280;51342;55.250;37.668;2022-12-07T09:11:54;100696.50;;;-8.49;63.37
45369;BME280;51342;55.250;37.668;2022-12-07T09:14:25;100689.19;;;-8.47;63.48
45369;BME280;51342;55.250;37.668;2022-12-07T09:17:06;100689.41;;;-8.46;63.21
45369;BME280;51342;55.250;37.668;2022-12-07T09:19:38;100694.88;;;-8.43;63.05
45369;BME280;51342;55.250;37.668;2022-12-07T09:22:10;100693.06;;;-8.44;63.02
45369;BME280;51342;55.250;37.668;2022-12-07T09:24:41;100679.63;;;-8.44;62.85
45369;BME280;51342;55.250;37.668;2022-12-07T09:27:14;100690.56;;;-8.44;62.84
45369;BME280;51342;55.250;37.668;2022-12-07T09:29:46;100679.63;;;-8.44;62.61
45369;BME280;51342;55.250;37.668;2022-12-07T09:32:18;100674.81;;;-8.48;62.68
45369;BME280;51342;55.250;37.668;2022-12-07T09:34:49;100690.78;;;-8.42;62.75
45369;BME280;51342;55.250;37.668;2022-12-07T09:37:21;100674.59;;;-8.44;62.55
45369;BME280;51342;55.250;37.668;2022-12-07T09:39:52;100667.97;;;-8.44;62.53
45369;BME280;51342;55.250;37.668;2022-12-07T09:42:38;100669.34;;;-8.51;62.36
45369;BME280;51342;55.250;37.668;2022-12-07T09:45:38;100664.78;;;-8.48;62.57
45369;BME280;51342;55.250;37.668;2022-12-07T09:48:20;100665.94;;;-8.52;62.39
45369;BME280;51342;55.250;37.668;2022-12-07T09:50:54;100667.53;;;-8.52;62.58
45369;BME280;51342;55.250;37.668;2022-12-07T09:53:33;100657.50;;;-8.58;62.53
45369;BME280;51342;55.250;37.668;2022-12-07T09:56:05;100657.72;;;-8.57;62.40
45369;BME280;51342;55.250;37.668;2022-12-07T09:58:36;100659.31;;;-8.57;62.34
45369;BME280;51342;55.250;37.668;2022-12-07T10:01:12;100663.44;;;-8.58;62.40
45369;BME280;51342;55.250;37.668;2022-12-07T10:03:58;100654.56;;;-8.61;62.44
45369;BME280;51342;55.250;37.668;2022-12-07T10:06:30;100657.72;;;-8.57;62.40
45369;BME280;51342;55.250;37.668;2022-12-07T10:09:01;100658.00;;;-8.61;62.25
45369;BME280;51342;55.250;37.668;2022-12-07T10:11:33;100652.06;;;-8.61;62.34
45369;BME280;51342;55.250;37.668;2022-12-07T10:14:12;100660.94;;;-8.63;62.07
45369;BME280;51342;55.250;37.668;2022-12-07T10:16:44;100644.78;;;-8.65;61.95
45369;BME280;51342;55.250;37.668;2022-12-07T10:19:21;100651.81;;;-8.63;62.11
45369;BME280;51342;55.250;37.668;2022-12-07T10:24:43;100640.44;;;-8.61;62.32
45369;BME280;51342;55.250;37.668;2022-12-07T10:27:30;100647.50;;;-8.64;62.05
45369;BME280;51342;55.250;37.668;2022-12-07T10:30:07;100639.75;;;-8.65;62.21
45369;BME280;51342;55.250;37.668;2022-12-07T10:32:40;100637.94;;;-8.61;62.26
45369;BME280;51342;55.250;37.668;2022-12-07T10:35:21;100626.53;;;-8.64;62.08
45369;BME280;51342;55.250;37.668;2022-12-07T10:37:54;100634.72;;;-8.60;62.08
45369;BME280;51342;55.250;37.668;2022-12-07T10:40:28;100631.72;;;-8.57;62.03
45369;BME280;51342;55.250;37.668;2022-12-07T10:48:24;100627.94;;;-8.77;62.50
45369;BME280;51342;55.250;37.668;2022-12-07T10:51:20;100631.56;;;-8.70;62.13
45369;BME280;51342;55.250;37.668;2022-12-07T10:54:24;100622.91;;;-8.72;62.12
45369;BME280;51342;55.250;37.668;2022-12-07T10:57:21;100607.19;;;-8.76;62.13
45369;BME280;51342;55.250;37.668;2022-12-07T11:00:00;100621.53;;;-8.70;62.00
45369;BME280;51342;55.250;37.668;2022-12-07T11:06:27;100621.97;;;-8.67;62.04
45369;BME280;51342;55.250;37.668;2022-12-07T11:14:24;100609.47;;;-8.72;62.19
45369;BME280;51342;55.250;37.668;2022-12-07T11:16:59;100598.72;;;-8.71;62.23
45369;BME280;51342;55.250;37.668;2022-12-07T11:22:31;100601.91;;;-8.67;62.17
45369;BME280;51342;55.250;37.668;2022-12-07T11:26:19;100598.72;;;-8.71;62.18
45369;BME280;51342;55.250;37.668;2022-12-07T11:31:21;100586.44;;;-8.75;62.23
45369;BME280;51342;55.250;37.668;2022-12-07T11:34:27;100592.59;;;-8.73;62.26
45369;BME280;51342;55.250;37.668;2022-12-07T11:37:03;100589.84;;;-8.75;62.36
45369;BME280;51342;55.250;37.668;2022-12-07T11:39:56;100586.22;;;-8.77;62.27
45369;BME280;51342;55.250;37.668;2022-12-07T11:42:39;100583.22;;;-8.74;62.55
45369;BME280;51342;55.250;37.668;2022-12-07T11:48:00;100578.91;;;-8.75;62.37
45369;BME280;51342;55.250;37.668;2022-12-07T11:56:14;100573.47;;;-8.78;62.59
45369;BME280;51342;55.250;37.668;2022-12-07T12:01:29;100576.63;;;-8.79;62.62
45369;BME280;51342;55.250;37.668;2022-12-07T12:06:43;100561.44;;;-8.98;62.95
45369;BME280;51342;55.250;37.668;2022-12-07T12:09:41;100563.22;;;-8.91;62.76
45369;BME280;51342;55.250;37.668;2022-12-07T12:15:13;100557.31;;;-8.97;62.53
45369;BME280;51342;55.250;37.668;2022-12-07T12:18:00;100556.88;;;-8.95;62.83
45369;BME280;51342;55.250;37.668;2022-12-07T12:20:45;100560.31;;;-9.00;62.85
45369;BME280;51342;55.250;37.668;2022-12-07T12:25:59;100553.91;;;-9.03;63.02
45369;BME280;51342;55.250;37.668;2022-12-07T12:33:57;100556.00;;;-9.06;63.19
45369;BME280;51342;55.250;37.668;2022-12-07T12:36:43;100553.72;;;-9.11;63.20
45369;BME280;51342;55.250;37.668;2022-12-07T12:39:19;100548.94;;;-9.15;63.31
45369;BME280;51342;55.250;37.668;2022-12-07T12:41:54;100551.03;;;-9.18;63.50
45369;BME280;51342;55.250;37.668;2022-12-07T12:55:18;100550.59;;;-9.38;63.74
45369;BME280;51342;55.250;37.668;2022-12-07T13:01:32;100549.69;;;-9.49;63.76
45369;BME280;51342;55.250;37.668;2022-12-07T13:04:21;100551.06;;;-9.51;63.72
45369;BME280;51342;55.250;37.668;2022-12-07T13:06:54;100547.88;;;-9.50;64.00
45369;BME280;51342;55.250;37.668;2022-12-07T13:09:32;100546.28;;;-9.55;63.97
45369;BME280;51342;55.250;37.668;2022-12-07T13:12:12;100544.91;;;-9.59;64.09
45369;BME280;51342;55.250;37.668;2022-12-07T13:14:56;100543.56;;;-9.63;64.12
45369;BME280;51342;55.250;37.668;2022-12-07T13:20:05;100544.69;;;-9.66;64.14
45369;BME280;51342;55.250;37.668;2022-12-07T13:22:41;100548.59;;;-9.68;64.05
45369;BME280;51342;55.250;37.668;2022-12-07T13:27:56;100545.59;;;-9.71;64.40
45369;BME280;51342;55.250;37.668;2022-12-07T13:30:29;100544.91;;;-9.76;64.37
45369;BME280;51342;55.250;37.668;2022-12-07T13:33:03;100540.16;;;-9.74;64.32
45369;BME280;51342;55.250;37.668;2022-12-07T13:35:36;100544.91;;;-9.76;64.33
45369;BME280;51342;55.250;37.668;2022-12-07T13:38:25;100543.34;;;-9.81;64.45
45369;BME280;51342;55.250;37.668;2022-12-07T13:41:12;100531.06;;;-9.85;64.42
45369;BME280;51342;55.250;37.668;2022-12-07T13:44:05;100548.13;;;-9.88;64.35
45369;BME280;51342;55.250;37.668;2022-12-07T13:51:49;100541.75;;;-9.97;64.60
45369;BME280;51342;55.250;37.668;2022-12-07T13:54:21;100535.16;;;-9.97;64.71
45369;BME280;51342;55.250;37.668;2022-12-07T13:56:52;100534.91;;;-9.98;64.64
45369;BME280;51342;55.250;37.668;2022-12-07T13:59:25;100533.56;;;-9.96;64.69
45369;BME280;51342;55.250;37.668;2022-12-07T14:01:57;100532.88;;;-9.95;64.77
45369;BME280;51342;55.250;37.668;2022-12-07T14:04:36;100524.25;;;-9.97;65.21
45369;BME280;51342;55.250;37.668;2022-12-07T14:15:59;100524.66;;;-10.00;64.90
45369;BME280;51342;55.250;37.668;2022-12-07T14:18:40;100525.56;;;-9.99;65.18
45369;BME280;51342;55.250;37.668;2022-12-07T14:21:16;100526.75;;;-9.97;64.97
45369;BME280;51342;55.250;37.668;2022-12-07T14:26:52;100510.81;;;-10.09;65.15
45369;BME280;51342;55.250;37.668;2022-12-07T14:32:21;100517.84;;;-10.12;65.01
45369;BME280;51342;55.250;37.668;2022-12-07T14:37:40;100519.91;;;-10.09;65.30
45369;BME280;51342;55.250;37.668;2022-12-07T14:40:19;100515.13;;;-10.08;65.39
45369;BME280;51342;55.250;37.668;2022-12-07T14:42:54;100522.84;;;-10.06;65.51
45369;BME280;51342;55.250;37.668;2022-12-07T14:45:26;100513.75;;;-10.06;65.46
45369;BME280;51342;55.250;37.668;2022-12-07T14:47:58;100528.06;;;-10.05;65.20
45369;BME280;51342;55.250;37.668;2022-12-07T14:50:29;100526.94;;;-10.07;65.63
45369;BME280;51342;55.250;37.668;2022-12-07T14:53:15;100516.72;;;-10.08;65.54
45369;BME280;51342;55.250;37.668;2022-12-07T14:55:47;100511.72;;;-10.08;65.75
45369;BME280;51342;55.250;37.668;2022-12-07T14:58:18;100508.31;;;-10.09;65.77
45369;BME280;51342;55.250;37.668;2022-12-07T15:00:49;100503.53;;;-10.07;65.80
45369;BME280;51342;55.250;37.668;2022-12-07T15:03:21;100514.22;;;-10.08;65.79
45369;BME280;51342;55.250;37.668;2022-12-07T15:05:52;100500.56;;;-10.05;65.85
45369;BME280;51342;55.250;37.668;2022-12-07T15:08:24;100500.56;;;-10.05;65.98
45369;BME280;51342;55.250;37.668;2022-12-07T15:10:55;100502.41;;;-10.04;65.68
45369;BME280;51342;55.250;37.668;2022-12-07T15:13:26;100503.75;;;-10.06;65.83